Time;durP1;ratioP1;P1;durP2;ratioP2;P2;SDS_P1;SDS_P2;PMS_P1;PMS_P2;Temp;Humidity;BMP_temperature;BMP_pressure;BME280_temperature;BME280_humidity;BME280_pressure;Samples;Min_cycle;Max_cycle;Signal;HPM_P1;HPM_P2
2023/12/08 00:00:27;;;;;;;12.10;10.67;;;2.80;99.90;;;;;;6070834;23;20422;-82
2023/12/08 00:03:18;;;;;;;11.50;10.27;;;2.80;99.90;;;;;;6071031;23;20429;-82
2023/12/08 00:06:02;;;;;;;11.90;10.70;;;2.80;99.90;;;;;;6087157;23;20391;-82
2023/12/08 00:08:56;;;;;;;12.17;10.27;;;2.90;99.90;;;;;;6162977;23;20412;-82
2023/12/08 00:15:39;;;;;;;11.67;10.00;;;3.20;99.90;;;;;;6055272;23;20467;-82
2023/12/08 00:18:48;;;;;;;10.17;9.17;;;2.90;99.90;;;;;;6177506;23;20479;-81
2023/12/08 00:21:45;;;;;;;13.00;9.70;;;2.90;99.90;;;;;;6270052;22;21010;-81
2023/12/08 00:25:07;;;;;;;10.80;9.67;;;3.00;99.90;;;;;;6271874;22;20393;-82
2023/12/08 00:35:17;;;;;;;11.30;10.20;;;3.00;99.90;;;;;;6035304;23;20420;-80
2023/12/08 00:38:42;;;;;;;14.10;10.83;;;3.00;99.90;;;;;;6080555;22;20420;-79
2023/12/08 00:44:41;;;;;;;13.83;10.70;;;2.90;99.90;;;;;;6301272;22;20403;-79
2023/12/08 00:47:50;;;;;;;13.50;10.93;;;2.90;99.90;;;;;;6298346;22;20428;-80
2023/12/08 00:57:15;;;;;;;14.90;11.87;;;2.80;99.90;;;;;;6301185;22;20418;-81
2023/12/08 01:00:21;;;;;;;13.30;11.57;;;2.90;99.90;;;;;;6303181;22;20407;-80
2023/12/08 01:03:18;;;;;;;11.70;10.30;;;2.90;99.90;;;;;;6299023;22;20438;-80
2023/12/08 01:09:20;;;;;;;12.07;10.73;;;2.90;99.90;;;;;;6143680;23;20401;-81
2023/12/08 01:12:19;;;;;;;12.77;11.53;;;3.00;99.90;;;;;;6286391;22;20431;-82
2023/12/08 01:15:09;;;;;;;11.07;9.83;;;3.00;99.90;;;;;;6285964;22;20783;-83
2023/12/08 01:18:11;;;;;;;11.60;10.40;;;3.00;99.90;;;;;;6286142;22;20482;-81
2023/12/08 01:24:41;;;;;;;11.40;10.20;;;3.00;99.90;;;;;;6269621;22;20804;-81
2023/12/08 01:28:02;;;;;;;12.67;10.40;;;3.00;99.90;;;;;;6289901;22;20416;-80
2023/12/08 01:34:30;;;;;;;12.13;10.50;;;3.00;99.90;;;;;;6279419;22;20393;-82
2023/12/08 01:37:32;;;;;;;12.60;9.93;;;2.70;99.90;;;;;;6285447;22;20506;-80
2023/12/08 01:40:32;;;;;;;11.47;9.77;;;3.00;99.90;;;;;;6288027;22;20501;-82
2023/12/08 01:59:47;;;;;;;11.93;10.63;;;3.10;99.90;;;;;;6282792;22;20431;-80
2023/12/08 02:02:36;;;;;;;12.57;10.40;;;3.10;99.90;;;;;;6261957;22;20436;-78
2023/12/08 02:08:36;;;;;;;12.60;11.30;;;3.10;99.90;;;;;;6252195;22;20831;-78
2023/12/08 02:11:25;;;;;;;12.60;11.17;;;3.10;99.90;;;;;;6282121;22;20432;-80
2023/12/08 02:17:40;;;;;;;12.37;10.43;;;3.10;99.90;;;;;;6279618;22;20418;-77
2023/12/08 02:20:35;;;;;;;11.23;10.20;;;3.10;99.90;;;;;;6273763;22;20498;-80
2023/12/08 02:23:38;;;;;;;10.53;9.53;;;3.10;99.90;;;;;;6287094;22;20446;-80
2023/12/08 02:26:24;;;;;;;12.33;9.97;;;3.10;99.90;;;;;;6288352;22;20411;-80
2023/12/08 02:29:30;;;;;;;13.00;10.30;;;3.10;99.90;;;;;;6286795;22;20408;-78
2023/12/08 02:32:35;;;;;;;11.63;10.43;;;3.10;99.90;;;;;;6267769;22;20423;-80
2023/12/08 02:49:18;;;;;;;11.00;9.90;;;3.10;99.90;;;;;;5969268;23;20444;-78
2023/12/08 03:02:18;;;;;;;8.93;8.03;;;3.10;99.90;;;;;;5962153;24;20474;-78
2023/12/08 03:05:09;;;;;;;15.90;8.43;;;3.20;99.90;;;;;;5963324;24;20581;-79
2023/12/08 03:08:15;;;;;;;9.33;8.53;;;3.20;99.90;;;;;;5965486;24;20486;-80
2023/12/08 03:14:19;;;;;;;10.83;9.93;;;3.20;99.90;;;;;;6259371;23;20389;-78
2023/12/08 03:17:21;;;;;;;9.40;8.37;;;3.20;99.90;;;;;;6258297;23;20408;-79
2023/12/08 03:20:17;;;;;;;11.60;10.10;;;3.50;99.90;;;;;;6258548;23;20432;-79
2023/12/08 03:23:12;;;;;;;13.57;11.77;;;3.10;99.90;;;;;;6231976;23;20440;-79
2023/12/08 03:29:15;;;;;;;13.40;10.30;;;3.10;99.90;;;;;;6211590;23;20472;-78
2023/12/08 03:32:02;;;;;;;13.33;11.47;;;3.10;99.90;;;;;;6218098;22;20427;-79
2023/12/08 03:35:04;;;;;;;13.07;11.60;;;3.10;99.90;;;;;;6261798;23;20412;-77
2023/12/08 03:37:55;;;;;;;12.07;10.63;;;3.10;99.90;;;;;;6219662;23;20417;-78
2023/12/08 03:43:49;;;;;;;14.37;11.97;;;3.10;99.90;;;;;;6260773;23;20436;-77
2023/12/08 03:46:46;;;;;;;13.60;12.10;;;2.90;99.90;;;;;;6262422;23;20444;-78
2023/12/08 04:09:11;;;;;;;14.30;11.83;;;3.00;99.90;;;;;;5947127;23;20412;-78
2023/12/08 04:12:02;;;;;;;12.37;11.07;;;2.90;99.90;;;;;;6120286;23;20457;-79
2023/12/08 04:15:20;;;;;;;13.40;11.87;;;2.90;99.90;;;;;;6168090;23;20397;-80
2023/12/08 04:18:18;;;;;;;13.00;11.70;;;3.10;99.90;;;;;;6167247;23;20410;-79
2023/12/08 04:21:18;;;;;;;13.40;11.50;;;3.00;99.90;;;;;;6169473;23;20462;-80
2023/12/08 04:27:04;;;;;;;12.23;10.93;;;3.10;99.90;;;;;;6147630;23;20394;-79
2023/12/08 04:30:02;;;;;;;14.57;12.40;;;3.20;99.90;;;;;;6171845;23;20431;-78
2023/12/08 04:32:46;;;;;;;12.83;9.80;;;3.10;99.90;;;;;;6170719;23;20434;-78
2023/12/08 04:35:37;;;;;;;10.30;8.47;;;3.20;99.90;;;;;;6169578;23;20461;-79
2023/12/08 04:38:20;;;;;;;9.07;8.17;;;3.20;99.90;;;;;;6171086;23;20391;-78
2023/12/08 04:41:12;;;;;;;10.70;8.73;;;3.30;99.90;;;;;;6167676;23;20942;-78
2023/12/08 04:44:22;;;;;;;;;;;;;;;;;;;;;
2023/12/08 04:47:27;;;;;;;8.90;8.00;;;3.10;99.90;;;;;;6167509;23;20407;-78
2023/12/08 05:07:03;;;;;;;10.47;9.37;;;3.40;99.90;;;;;;6087252;23;20446;-80
2023/12/08 05:09:55;;;;;;;13.90;10.23;;;3.30;99.90;;;;;;6263965;23;20435;-81
2023/12/08 05:12:42;;;;;;;11.27;8.97;;;3.30;99.90;;;;;;6264376;23;20409;-81
2023/12/08 05:15:48;;;;;;;10.53;8.80;;;3.30;99.90;;;;;;6264004;23;20443;-82
2023/12/08 05:28:45;;;;;;;11.60;10.17;;;3.30;99.90;;;;;;5996606;23;20451;-81
2023/12/08 05:55:04;;;;;;;15.23;12.70;;;3.30;99.90;;;;;;5934186;24;20418;-80
2023/12/08 05:57:48;;;;;;;14.80;12.80;;;3.30;99.90;;;;;;6000512;24;20468;-80
2023/12/08 06:00:36;;;;;;;17.57;14.97;;;3.30;99.90;;;;;;6234702;23;20429;-83
2023/12/08 06:03:19;;;;;;;17.37;12.93;;;3.30;99.90;;;;;;6232568;23;20435;-80
2023/12/08 06:06:00;;;;;;;17.53;13.57;;;3.20;99.90;;;;;;6231871;23;20437;-80
2023/12/08 06:08:40;;;;;;;16.77;14.23;;;3.20;99.90;;;;;;6234223;23;20383;-80
2023/12/08 06:11:22;;;;;;;14.60;12.47;;;3.20;99.90;;;;;;6232370;23;20453;-82
2023/12/08 06:14:09;;;;;;;;;;;;;;;;;;;;;
2023/12/08 06:17:15;;;;;;;17.93;12.23;;;3.20;99.90;;;;;;6234806;23;20698;-79
2023/12/08 06:19:59;;;;;;;16.50;13.00;;;3.20;99.90;;;;;;6233722;23;20419;-79
2023/12/08 06:22:44;;;;;;;16.37;13.10;;;3.30;99.90;;;;;;6233988;23;20441;-82
2023/12/08 06:31:59;;;;;;;15.30;13.30;;;3.20;99.90;;;;;;6178002;23;20913;-79
2023/12/08 06:34:37;;;;;;;15.30;12.73;;;3.30;99.90;;;;;;6235795;23;20420;-79
2023/12/08 06:37:14;;;;;;;14.93;12.20;;;3.30;99.90;;;;;;6235283;23;20414;-80
2023/12/08 06:42:43;;;;;;;14.73;13.10;;;3.30;99.90;;;;;;6229124;23;20434;-79
2023/12/08 06:45:21;;;;;;;16.77;14.33;;;3.30;99.90;;;;;;6220774;23;20414;-79
2023/12/08 06:48:08;;;;;;;14.83;12.53;;;3.30;99.90;;;;;;6227338;23;20402;-82
2023/12/08 06:50:53;;;;;;;15.03;12.40;;;3.30;99.90;;;;;;6221992;23;20561;-79
2023/12/08 06:53:35;;;;;;;14.33;12.27;;;3.30;99.90;;;;;;6223365;23;20509;-82
2023/12/08 06:56:18;;;;;;;15.30;12.53;;;3.30;99.90;;;;;;6224624;23;20424;-80
2023/12/08 06:58:53;;;;;;;17.07;13.23;;;3.40;99.90;;;;;;6223673;23;20721;-79
2023/12/08 07:01:31;;;;;;;13.57;12.13;;;3.50;99.90;;;;;;6220635;23;20425;-80
2023/12/08 07:04:10;;;;;;;14.90;13.13;;;3.60;99.90;;;;;;6221620;23;20443;-81
2023/12/08 07:06:45;;;;;;;17.93;14.53;;;3.60;99.90;;;;;;6222373;23;20411;-80
2023/12/08 07:09:21;;;;;;;15.77;14.00;;;3.60;99.90;;;;;;6223620;23;20493;-79
2023/12/08 07:12:03;;;;;;;14.33;12.80;;;3.60;99.90;;;;;;6224588;23;20413;-82
2023/12/08 07:14:56;;;;;;;14.60;13.10;;;3.60;99.90;;;;;;6226627;23;20397;-80
2023/12/08 07:17:27;;;;;;;12.83;11.40;;;3.50;99.90;;;;;;6225191;23;20413;-80
2023/12/08 07:20:10;;;;;;;13.40;10.87;;;3.50;99.90;;;;;;6224947;23;20445;-79
2023/12/08 07:22:44;;;;;;;15.87;11.83;;;3.60;99.90;;;;;;6234155;23;20498;-80
2023/12/08 07:25:26;;;;;;;14.60;11.53;;;3.60;99.90;;;;;;6224490;23;20402;-81
2023/12/08 07:28:12;;;;;;;13.13;10.47;;;3.60;99.90;;;;;;6225378;23;20406;-81
2023/12/08 07:30:45;;;;;;;11.73;10.50;;;3.10;99.90;;;;;;6227975;23;20444;-82
2023/12/08 07:33:28;;;;;;;15.20;10.90;;;3.70;99.90;;;;;;6225363;23;20393;-80
2023/12/08 07:36:07;;;;;;;12.63;10.50;;;3.70;99.90;;;;;;6221101;23;20417;-82
2023/12/08 07:38:41;;;;;;;11.13;10.00;;;3.70;99.90;;;;;;6223960;23;20406;-79
2023/12/08 07:41:23;;;;;;;11.80;10.60;;;3.80;99.90;;;;;;6222824;23;20465;-80
2023/12/08 07:47:03;;;;;;;11.97;9.90;;;3.80;99.90;;;;;;6203203;23;20462;-80
2023/12/08 07:49:43;;;;;;;12.30;10.53;;;3.80;99.90;;;;;;6222232;23;20433;-81
2023/12/08 07:52:19;;;;;;;12.40;10.40;;;3.90;99.90;;;;;;6224837;23;20900;-81
2023/12/08 07:55:16;;;;;;;16.20;12.20;;;3.90;99.90;;;;;;6225326;23;20421;-81
2023/12/08 07:57:51;;;;;;;11.37;9.87;;;3.90;99.90;;;;;;6229088;23;20409;-82
2023/12/08 08:03:33;;;;;;;16.23;14.73;;;3.90;99.90;;;;;;6219468;23;20442;-81
2023/12/08 08:06:12;;;;;;;18.90;15.13;;;4.00;99.90;;;;;;6224068;23;20489;-80
2023/12/08 08:08:52;;;;;;;15.40;12.43;;;4.10;99.90;;;;;;6224736;23;20417;-79
2023/12/08 08:11:26;;;;;;;12.47;10.67;;;3.80;99.90;;;;;;6233495;23;20417;-79
2023/12/08 08:14:08;;;;;;;13.73;11.60;;;3.90;99.90;;;;;;6238460;23;20410;-80
2023/12/08 08:16:42;;;;;;;10.70;9.60;;;4.00;99.90;;;;;;6237728;23;20614;-81
2023/12/08 08:19:26;;;;;;;11.20;9.07;;;4.00;99.90;;;;;;6238177;23;20397;-81
2023/12/08 08:22:07;;;;;;;11.43;10.33;;;4.10;99.90;;;;;;6233759;23;20437;-80
2023/12/08 08:24:39;;;;;;;14.73;8.73;;;4.20;99.90;;;;;;6224318;23;20438;-80
2023/12/08 08:27:17;;;;;;;11.17;9.57;;;4.30;99.90;;;;;;6223481;23;20410;-81
2023/12/08 08:29:56;;;;;;;9.83;8.77;;;4.30;99.90;;;;;;6224528;23;20430;-81
2023/12/08 08:32:36;;;;;;;9.73;8.47;;;4.40;99.90;;;;;;6224833;23;20413;-79
2023/12/08 08:35:14;;;;;;;9.13;8.20;;;4.40;99.90;;;;;;6223721;23;20414;-81
2023/12/08 08:37:45;;;;;;;8.97;8.07;;;4.50;99.90;;;;;;6226707;23;20417;-81
2023/12/08 08:40:23;;;;;;;9.00;8.07;;;4.50;99.90;;;;;;6227404;23;20430;-82
2023/12/08 08:43:00;;;;;;;9.20;8.30;;;4.60;99.90;;;;;;6227215;23;20465;-81
2023/12/08 08:48:32;;;;;;;14.80;12.60;;;4.50;99.90;;;;;;6214933;23;20417;-82
2023/12/08 08:51:16;;;;;;;13.60;11.70;;;4.50;99.90;;;;;;6226934;23;21086;-81
2023/12/08 08:53:54;;;;;;;18.10;15.20;;;4.40;99.90;;;;;;6228474;23;20433;-81
2023/12/08 08:56:33;;;;;;;20.33;16.33;;;4.40;99.90;;;;;;6229612;23;20519;-84
2023/12/08 08:59:07;;;;;;;19.23;17.13;;;4.40;99.90;;;;;;6236018;23;20409;-81
2023/12/08 09:02:16;;;;;;;22.20;17.43;;;4.30;99.90;;;;;;6234476;23;20410;-82
2023/12/08 09:04:50;;;;;;;26.47;17.83;;;4.30;99.90;;;;;;6239721;23;20453;-81
2023/12/08 09:07:30;;;;;;;23.27;17.47;;;4.30;99.90;;;;;;6240181;23;20402;-82
2023/12/08 09:10:08;;;;;;;23.63;17.70;;;4.30;99.90;;;;;;6238426;23;20484;-80
2023/12/08 09:12:46;;;;;;;29.57;19.30;;;4.30;99.90;;;;;;6239151;23;20402;-80
2023/12/08 09:15:18;;;;;;;25.90;19.60;;;4.60;99.90;;;;;;6238831;23;20407;-81
2023/12/08 09:17:55;;;;;;;28.30;21.17;;;4.30;99.90;;;;;;6241682;23;20390;-81
2023/12/08 09:20:44;;;;;;;29.23;23.00;;;4.40;99.90;;;;;;6241902;23;20542;-80
2023/12/08 09:23:27;;;;;;;29.60;22.20;;;4.30;99.90;;;;;;6242980;23;20454;-79
2023/12/08 09:26:01;;;;;;;28.90;20.70;;;4.30;99.90;;;;;;6238970;23;20386;-81
2023/12/08 09:28:46;;;;;;;32.97;22.67;;;4.30;99.90;;;;;;6237133;23;20469;-84
2023/12/08 09:31:18;;;;;;;25.60;21.00;;;4.40;99.90;;;;;;6235971;23;20434;-81
2023/12/08 09:34:34;;;;;;;22.70;20.10;;;4.40;99.90;;;;;;6237009;23;20403;-80
2023/12/08 09:37:28;;;;;;;28.37;21.23;;;4.40;99.90;;;;;;6223434;23;20418;-83
2023/12/08 09:40:38;;;;;;;;;;;;;;;;;;;;;
2023/12/08 09:43:47;;;;;;;30.83;22.63;;;4.50;99.90;;;;;;6057709;23;20446;-81
2023/12/08 09:49:20;;;;;;;30.10;20.73;;;4.40;99.90;;;;;;6133669;23;20402;-81
2023/12/08 09:52:28;;;;;;;27.00;22.33;;;4.40;99.90;;;;;;6238726;23;20640;-82
2023/12/08 09:58:34;;;;;;;28.33;22.47;;;4.40;99.90;;;;;;6235776;23;20410;-80
2023/12/08 10:01:49;;;;;;;26.77;21.83;;;4.40;99.90;;;;;;6240324;23;20477;-81
2023/12/08 10:04:26;;;;;;;26.73;20.87;;;4.20;99.90;;;;;;6198251;23;20538;-81
2023/12/08 10:06:58;;;;;;;30.13;23.07;;;4.50;99.90;;;;;;6238341;23;20520;-80
2023/12/08 10:09:35;;;;;;;35.50;23.37;;;4.50;99.90;;;;;;6237282;23;20437;-79
2023/12/08 10:12:14;;;;;;;32.10;22.50;;;4.60;99.90;;;;;;6240420;23;20426;-82
2023/12/08 10:15:04;;;;;;;26.13;22.10;;;4.60;99.90;;;;;;6240692;23;20398;-82
2023/12/08 10:17:54;;;;;;;27.17;22.87;;;4.60;99.90;;;;;;6241791;23;20394;-80
2023/12/08 10:20:27;;;;;;;26.17;21.80;;;4.60;99.90;;;;;;6237969;23;20421;-81
2023/12/08 10:26:23;;;;;;;27.87;21.17;;;4.60;99.90;;;;;;6120707;23;20425;-80
2023/12/08 10:29:03;;;;;;;24.27;19.67;;;4.60;99.90;;;;;;6240907;23;20394;-80
2023/12/08 10:31:58;;;;;;;29.50;23.17;;;4.70;99.90;;;;;;6239986;23;20390;-82
2023/12/08 10:37:46;;;;;;;22.40;17.53;;;4.80;99.90;;;;;;6217998;23;20406;-79
2023/12/08 10:40:29;;;;;;;19.20;15.87;;;4.90;99.90;;;;;;6236801;23;20448;-80
2023/12/08 10:43:16;;;;;;;;;;;;;;;;;;;;;
2023/12/08 10:46:08;;;;;;;12.70;10.70;;;5.20;99.90;;;;;;6236551;23;20367;-81
2023/12/08 10:48:53;;;;;;;12.87;10.70;;;5.30;99.90;;;;;;6237846;23;20390;-80
2023/12/08 10:51:32;;;;;;;11.20;9.43;;;5.60;99.90;;;;;;6237834;23;20440;-81
2023/12/08 10:54:38;;;;;;;10.97;8.70;;;5.50;99.90;;;;;;6237113;23;20410;-81
2023/12/08 11:08:57;;;;;;;10.00;8.77;;;5.80;99.90;;;;;;6000316;23;20412;-82
2023/12/08 11:16:13;;;;;;;9.67;7.57;;;5.70;99.90;;;;;;5987993;23;20517;-80
2023/12/08 11:23:10;;;;;;;7.20;6.50;;;6.10;99.90;;;;;;5947600;23;20402;-83
2023/12/08 11:40:43;;;;;;;7.80;7.10;;;6.40;99.90;;;;;;5978347;23;20446;-82
2023/12/08 11:52:54;;;;;;;13.20;11.90;;;6.60;99.90;;;;;;5816630;24;20434;-83
2023/12/08 12:32:52;;;;;;;26.47;17.20;;;6.80;99.90;;;;;;6018414;23;20443;-81
2023/12/08 12:49:47;;;;;;;6.53;5.87;;;7.30;99.90;;;;;;5841122;24;20402;-81
2023/12/08 13:15:53;;;;;;;3.67;3.47;;;7.70;99.90;;;;;;6061817;23;20417;-82
2023/12/08 13:18:57;;;;;;;3.83;3.60;;;7.70;99.90;;;;;;6154552;23;20417;-80
2023/12/08 13:21:41;;;;;;;4.23;3.83;;;7.70;99.90;;;;;;6225834;23;20485;-82
2023/12/08 13:31:25;;;;;;;3.60;2.93;;;7.80;99.90;;;;;;6130461;23;20435;-84
2023/12/08 13:34:29;;;;;;;4.03;3.73;;;7.90;99.90;;;;;;6208177;23;20405;-82
2023/12/08 13:40:28;;;;;;;3.77;3.57;;;7.90;99.90;;;;;;6100724;23;20424;-81
2023/12/08 13:49:57;;;;;;;3.63;3.37;;;8.00;99.90;;;;;;6099214;23;20421;-80
2023/12/08 13:56:36;;;;;;;3.33;2.90;;;8.00;99.90;;;;;;6027592;23;20418;-80
2023/12/08 14:13:16;;;;;;;10.37;9.30;;;7.90;99.90;;;;;;6044049;23;20403;-82
2023/12/08 14:16:08;;;;;;;14.63;10.47;;;7.90;99.90;;;;;;6014789;23;20491;-80
2023/12/08 14:18:52;;;;;;;12.20;9.90;;;7.90;99.90;;;;;;6123001;23;20413;-81
2023/12/08 14:21:34;;;;;;;9.83;8.30;;;7.90;99.90;;;;;;6219894;23;20422;-82
2023/12/08 14:24:10;;;;;;;11.27;8.93;;;7.90;99.90;;;;;;6255231;23;20414;-81
2023/12/08 14:30:15;;;;;;;10.20;8.43;;;8.00;99.90;;;;;;6258235;23;20528;-80
2023/12/08 14:42:58;;;;;;;6.60;4.17;;;8.00;99.90;;;;;;6075163;23;20482;-83
2023/12/08 14:45:46;;;;;;;2.97;2.80;;;7.70;99.90;;;;;;6201674;23;20445;-81
2023/12/08 14:49:13;;;;;;;;;;;;;;;;;;;;;
2023/12/08 14:51:59;;;;;;;3.83;3.43;;;7.70;99.90;;;;;;6210499;23;20407;-83
2023/12/08 14:54:48;;;;;;;3.60;3.30;;;8.00;99.90;;;;;;6261647;23;21005;-80
2023/12/08 15:01:34;;;;;;;;;;;;;;;;;;;;;
2023/12/08 15:20:41;;;;;;;16.83;15.03;;;7.70;99.90;;;;;;5819666;24;20799;-80
2023/12/08 15:23:55;;;;;;;;;;;;;;;;;;;;;
2023/12/08 15:35:07;;;;;;;16.30;14.20;;;7.70;99.90;;;;;;5885423;24;20563;-83
2023/12/08 15:38:23;;;;;;;;;;;;;;;;;;;;;
2023/12/08 15:41:01;;;;;;;7.50;5.83;;;7.30;99.90;;;;;;6235227;23;20418;-81
2023/12/08 15:53:38;;;;;;;11.10;10.10;;;7.70;99.90;;;;;;4794875;27;9909981;-80
2023/12/08 16:20:32;;;;;;;14.93;13.33;;;7.40;99.90;;;;;;4940811;28;20506;-80
2023/12/08 16:23:06;;;;;;;14.87;13.30;;;7.40;99.90;;;;;;4964364;29;20528;-83
2023/12/08 16:25:46;;;;;;;15.37;13.73;;;7.40;99.90;;;;;;5084266;28;20465;-83
2023/12/08 16:28:23;;;;;;;15.43;13.93;;;7.40;99.90;;;;;;5116215;28;20462;-80
2023/12/08 16:31:06;;;;;;;16.85;15.05;;;7.00;99.90;;;;;;5125853;28;20447;-81
2023/12/08 16:33:46;;;;;;;16.97;15.20;;;7.40;99.90;;;;;;5123009;28;20252;-84
2023/12/08 16:36:33;;;;;;;21.53;16.57;;;7.10;99.90;;;;;;5128458;28;20429;-80
2023/12/08 16:39:26;;;;;;;18.63;16.70;;;7.40;99.90;;;;;;5116867;28;20451;-82
2023/12/08 16:42:30;;;;;;;16.63;14.80;;;7.30;99.90;;;;;;5120614;28;20435;-82
2023/12/08 16:45:12;;;;;;;16.83;15.10;;;7.10;99.90;;;;;;5127276;28;20419;-83
2023/12/08 16:48:02;;;;;;;16.37;14.60;;;7.30;99.90;;;;;;5119311;28;20523;-79
2023/12/08 16:50:44;;;;;;;15.40;13.80;;;7.20;99.90;;;;;;5125741;28;20452;-80
2023/12/08 16:53:36;;;;;;;;;;;;;;;;;;;;;
2023/12/08 17:10:19;;;;;;;18.47;16.00;;;7.20;99.90;;;;;;5029640;28;20546;-79
2023/12/08 17:20:56;;;;;;;;;;;;;;;;;;;;;
2023/12/08 17:27:45;;;;;;;16.03;14.50;;;7.40;99.90;;;;;;4938245;28;20505;-82
2023/12/08 17:30:16;;;;;;;16.43;14.83;;;7.10;99.90;;;;;;4986786;28;20487;-81
2023/12/08 17:32:58;;;;;;;17.60;15.33;;;7.10;99.90;;;;;;5047109;28;20466;-82
2023/12/08 17:35:33;;;;;;;15.87;14.27;;;7.10;99.90;;;;;;5092658;28;20453;-80
2023/12/08 17:38:41;;;;;;;16.27;14.60;;;7.10;99.90;;;;;;5106135;28;20439;-80
2023/12/08 17:41:16;;;;;;;15.70;14.30;;;7.10;99.90;;;;;;5118227;28;20447;-80
2023/12/08 17:44:14;;;;;;;16.83;14.30;;;7.20;99.90;;;;;;5117444;28;20433;-80
2023/12/08 17:46:48;;;;;;;16.50;14.70;;;7.10;99.90;;;;;;5123479;28;20434;-82
2023/12/08 17:49:19;;;;;;;15.93;14.43;;;6.90;99.90;;;;;;5113513;28;20517;-81
2023/12/08 17:52:09;;;;;;;18.10;15.00;;;7.10;99.90;;;;;;5126132;28;20477;-82
2023/12/08 17:54:39;;;;;;;16.10;13.67;;;7.10;99.90;;;;;;5129313;28;20431;-83
2023/12/08 17:57:27;;;;;;;16.67;14.63;;;7.10;99.90;;;;;;5113713;28;20442;-82
2023/12/08 18:00:10;;;;;;;14.60;13.20;;;7.10;99.90;;;;;;5120651;27;20459;-82
2023/12/08 18:03:10;;;;;;;15.50;14.10;;;7.10;99.90;;;;;;5116042;28;20440;-81
2023/12/08 18:08:33;;;;;;;15.37;13.93;;;7.10;99.90;;;;;;5117107;28;20482;-81
2023/12/08 18:11:22;;;;;;;15.83;14.40;;;7.30;99.90;;;;;;5113937;28;20476;-80
2023/12/08 18:14:03;;;;;;;17.37;14.50;;;7.10;99.90;;;;;;5118751;28;20454;-82
2023/12/08 18:16:44;;;;;;;16.63;14.93;;;7.10;99.90;;;;;;5124487;28;20440;-81
2023/12/08 18:22:28;;;;;;;;;;;;;;;;;;;;;
2023/12/08 18:28:30;;;;;;;15.57;14.07;;;7.10;99.90;;;;;;5103470;28;20468;-80
2023/12/08 18:31:14;;;;;;;15.07;13.50;;;7.00;99.90;;;;;;5127793;28;20491;-79
2023/12/08 18:34:00;;;;;;;16.63;14.93;;;7.00;99.90;;;;;;5128213;28;20465;-81
2023/12/08 18:36:38;;;;;;;16.03;14.53;;;7.00;99.90;;;;;;5128850;28;20444;-79
2023/12/08 18:39:22;;;;;;;16.60;14.97;;;7.00;99.90;;;;;;5132866;28;20453;-81
2023/12/08 18:45:01;;;;;;;17.20;15.60;;;7.00;99.90;;;;;;5134867;28;20423;-79
2023/12/08 18:47:36;;;;;;;15.80;14.30;;;7.30;99.90;;;;;;5136437;28;20451;-82
2023/12/08 18:50:31;;;;;;;15.20;13.70;;;7.00;99.90;;;;;;5136749;28;20432;-79
2023/12/08 18:53:16;;;;;;;14.80;13.40;;;7.10;99.90;;;;;;5129160;28;20502;-82
2023/12/08 18:56:45;;;;;;;15.20;13.80;;;7.00;99.90;;;;;;5116235;28;20443;-82
2023/12/08 18:59:35;;;;;;;15.27;13.73;;;7.10;99.90;;;;;;5115454;28;20511;-82
2023/12/08 19:02:15;;;;;;;15.00;13.53;;;7.10;99.90;;;;;;5115848;28;20448;-78
2023/12/08 19:04:54;;;;;;;17.60;15.33;;;7.10;99.90;;;;;;5126576;28;20498;-83
2023/12/08 19:07:37;;;;;;;16.47;14.97;;;7.00;99.90;;;;;;5136144;28;20446;-82
2023/12/08 19:13:43;;;;;;;16.33;14.73;;;7.10;99.90;;;;;;5133942;28;20500;-80
2023/12/08 19:16:25;;;;;;;16.07;14.57;;;7.10;99.90;;;;;;5108014;28;20450;-81
2023/12/08 19:19:03;;;;;;;17.40;15.70;;;7.10;99.90;;;;;;5107225;28;20435;-80
2023/12/08 19:21:51;;;;;;;19.00;16.80;;;7.10;99.90;;;;;;5101703;28;20445;-82
2023/12/08 19:24:41;;;;;;;16.07;14.53;;;7.10;99.90;;;;;;5098355;28;20451;-82
2023/12/08 19:27:21;;;;;;;15.10;13.60;;;7.10;99.90;;;;;;5108745;28;20516;-81
2023/12/08 19:29:59;;;;;;;16.47;14.90;;;7.10;99.90;;;;;;5109708;28;20468;-80
2023/12/08 19:32:38;;;;;;;17.20;15.40;;;7.10;99.90;;;;;;5100807;28;20494;-81
2023/12/08 19:35:16;;;;;;;16.53;14.93;;;7.00;99.90;;;;;;5085603;28;20440;-79
2023/12/08 19:37:59;;;;;;;18.70;16.63;;;7.30;99.90;;;;;;5093498;28;20424;-79
2023/12/08 19:40:49;;;;;;;17.13;15.33;;;7.00;99.90;;;;;;5094870;28;20495;-83
2023/12/08 19:43:41;;;;;;;14.67;13.27;;;7.10;99.90;;;;;;5104820;28;20448;-82
2023/12/08 19:46:30;;;;;;;16.67;14.77;;;7.00;99.90;;;;;;5095576;28;20440;-79
2023/12/08 19:49:35;;;;;;;14.97;13.67;;;7.10;99.90;;;;;;5095513;28;20442;-81
2023/12/08 19:52:16;;;;;;;16.30;14.60;;;7.10;99.90;;;;;;5105904;28;20461;-80
2023/12/08 19:54:44;;;;;;;15.07;13.67;;;7.00;99.90;;;;;;5105998;28;20452;-81
2023/12/08 20:01:12;;;;;;;14.70;13.20;;;7.10;99.90;;;;;;5070112;28;20457;-81
2023/12/08 20:07:36;;;;;;;14.80;13.40;;;7.10;99.90;;;;;;4949362;29;20434;-79
2023/12/08 20:10:13;;;;;;;14.17;12.97;;;7.10;99.90;;;;;;5034645;28;20456;-82
2023/12/08 20:13:08;;;;;;;14.63;13.13;;;7.10;99.90;;;;;;5110259;28;20480;-82
2023/12/08 20:16:01;;;;;;;15.80;14.30;;;7.10;99.90;;;;;;5111626;28;20452;-81
2023/12/08 20:18:44;;;;;;;16.20;13.80;;;7.10;99.90;;;;;;5106971;28;20471;-78
2023/12/08 20:21:21;;;;;;;15.47;13.87;;;7.10;99.90;;;;;;5093322;28;20470;-82
2023/12/08 20:24:03;;;;;;;15.57;14.07;;;7.10;99.90;;;;;;5110575;28;20442;-81
2023/12/08 20:26:44;;;;;;;17.30;14.50;;;7.20;99.90;;;;;;5111696;28;20441;-82
2023/12/08 20:29:17;;;;;;;16.80;15.13;;;7.10;99.90;;;;;;5114845;28;20437;-81
2023/12/08 20:31:58;;;;;;;16.80;15.00;;;7.20;99.90;;;;;;5129327;28;20434;-79
2023/12/08 20:34:32;;;;;;;17.40;15.70;;;7.10;99.90;;;;;;5120780;28;20483;-80
2023/12/08 20:37:21;;;;;;;16.37;14.77;;;7.10;99.90;;;;;;5123035;28;20431;-83
2023/12/08 20:40:08;;;;;;;18.43;16.43;;;7.10;99.90;;;;;;5139201;28;20522;-81
2023/12/08 20:42:51;;;;;;;17.43;15.57;;;7.10;99.90;;;;;;5139636;28;20473;-81
2023/12/08 20:45:27;;;;;;;20.27;17.00;;;7.10;99.90;;;;;;5140673;27;20439;-79
2023/12/08 20:48:13;;;;;;;21.00;18.27;;;7.10;99.90;;;;;;5138812;28;20471;-79
2023/12/08 21:01:05;;;;;;;19.37;17.47;;;7.00;99.90;;;;;;5034473;28;20466;-80
2023/12/08 21:03:47;;;;;;;20.03;17.87;;;7.10;99.90;;;;;;5032136;28;20447;-81
2023/12/08 21:09:49;;;;;;;20.17;17.67;;;7.10;99.90;;;;;;5111722;28;20443;-79
2023/12/08 21:12:28;;;;;;;21.03;17.40;;;7.10;99.90;;;;;;5110501;28;20440;-80
2023/12/08 21:15:24;;;;;;;;;;;;;;;;;;;;;
2023/12/08 21:18:45;;;;;;;18.60;16.00;;;7.10;99.90;;;;;;5113049;28;20446;-83
2023/12/08 21:25:26;;;;;;;19.03;17.10;;;7.10;99.90;;;;;;5041041;28;20527;-82
2023/12/08 21:28:10;;;;;;;15.93;13.93;;;7.10;99.90;;;;;;5066792;28;20449;-80
2023/12/08 21:37:47;;;;;;;16.13;14.53;;;7.20;99.90;;;;;;4924968;29;20456;-81
2023/12/08 22:09:23;;;;;;;14.93;13.30;;;7.20;99.90;;;;;;5035953;28;20440;-80
2023/12/08 22:12:17;;;;;;;;;;;;;;;;;;;;;
2023/12/08 22:18:39;;;;;;;13.50;12.20;;;7.30;99.90;;;;;;4968806;29;20557;-82
2023/12/08 22:35:38;;;;;;;15.63;13.77;;;7.30;99.90;;;;;;4841630;29;20454;-82
2023/12/08 22:42:16;;;;;;;;;;;;;;;;;;;;;
2023/12/08 22:56:55;;;;;;;17.93;16.13;;;6.80;99.90;;;;;;4881255;29;20463;-82
2023/12/08 22:59:55;;;;;;;18.37;16.47;;;7.10;99.90;;;;;;4963406;28;20485;-81
2023/12/08 23:13:09;;;;;;;19.03;16.40;;;7.00;99.90;;;;;;4905107;29;20469;-81
2023/12/08 23:22:46;;;;;;;19.27;17.40;;;7.10;99.90;;;;;;4990915;28;20456;-84
2023/12/08 23:26:12;;;;;;;24.80;22.20;;;7.10;99.90;;;;;;5018609;28;20932;-81
2023/12/08 23:38:36;;;;;;;21.10;18.90;;;7.10;99.90;;;;;;5021487;28;20446;-80
2023/12/08 23:44:41;;;;;;;21.50;19.40;;;7.10;99.90;;;;;;5032380;28;20426;-81
2023/12/08 23:47:25;;;;;;;19.97;17.83;;;7.10;99.90;;;;;;5041490;28;20456;-81
2023/12/08 23:50:08;;;;;;;20.47;18.37;;;7.00;99.90;;;;;;5042816;28;20445;-81
2023/12/08 23:53:00;;;;;;;21.73;17.90;;;7.10;99.90;;;;;;5044327;28;20503;-81
2023/12/08 23:56:05;;;;;;;21.13;17.10;;;7.10;99.90;;;;;;5041656;28;20470;-81
2023/12/08 23:59:01;;;;;;;20.43;18.33;;;7.10;99.90;;;;;;5042565;28;20455;-81
